Time;durP1;ratioP1;P1;durP2;ratioP2;P2;SDS_P1;SDS_P2;PMS_P1;PMS_P2;Temp;Humidity;BMP_temperature;BMP_pressure;BME280_temperature;BME280_humidity;BME280_pressure;Samples;Min_cycle;Max_cycle;Signal;HPM_P1;HPM_P2
2022/11/13 00:01:07;;;;;;;3.08;2.65;;;13.20;63.30;;;;;;5046860;28;45188;-73
2022/11/13 00:03:34;;;;;;;3.15;2.85;;;13.20;63.40;;;;;;5046710;28;45191;-73
2022/11/13 00:06:02;;;;;;;3.88;2.90;;;13.20;63.40;;;;;;5046700;28;45479;-72
2022/11/13 00:08:29;;;;;;;3.58;3.08;;;13.20;64.10;;;;;;5046558;28;46338;-73
2022/11/13 00:11:01;;;;;;;3.65;2.95;;;13.20;63.50;;;;;;5046503;28;45334;-72
2022/11/13 00:13:28;;;;;;;2.80;2.40;;;13.20;63.40;;;;;;5046719;28;45318;-73
2022/11/13 00:15:59;;;;;;;3.05;2.72;;;13.20;63.40;;;;;;5046898;28;45313;-72
2022/11/13 00:18:26;;;;;;;3.13;2.75;;;13.20;63.50;;;;;;5042234;28;45487;-72
2022/11/13 00:20:53;;;;;;;3.67;2.90;;;13.20;63.40;;;;;;5046582;28;45323;-73
2022/11/13 00:23:21;;;;;;;3.47;3.00;;;13.20;63.30;;;;;;5045987;28;45255;-73
2022/11/13 00:25:48;;;;;;;3.13;2.83;;;13.20;63.30;;;;;;5046684;28;45191;-73
2022/11/13 00:28:15;;;;;;;3.03;2.45;;;13.20;63.40;;;;;;5046246;28;45241;-73
2022/11/13 00:30:42;;;;;;;3.60;2.78;;;13.20;63.40;;;;;;5048922;28;45308;-72
2022/11/13 00:33:08;;;;;;;3.70;2.95;;;13.20;63.40;;;;;;5050001;28;45312;-72
2022/11/13 00:35:35;;;;;;;3.20;2.75;;;13.20;63.30;;;;;;5050135;28;45401;-73
2022/11/13 00:38:02;;;;;;;3.15;2.85;;;13.20;63.30;;;;;;5049764;28;45228;-72
2022/11/13 00:40:31;;;;;;;3.03;2.72;;;13.20;63.30;;;;;;5049133;28;45234;-73
2022/11/13 00:42:57;;;;;;;3.08;2.70;;;13.20;63.20;;;;;;5049656;28;45393;-72
2022/11/13 00:45:24;;;;;;;2.78;2.53;;;13.20;63.20;;;;;;5049882;28;45334;-73
2022/11/13 00:47:51;;;;;;;3.92;3.03;;;13.20;63.20;;;;;;5049530;28;46670;-73
2022/11/13 00:50:18;;;;;;;2.58;2.38;;;13.20;63.40;;;;;;5049487;28;45272;-72
2022/11/13 00:52:45;;;;;;;3.55;2.67;;;13.10;63.20;;;;;;5049727;28;45310;-72
2022/11/13 00:55:12;;;;;;;3.28;2.70;;;13.10;63.20;;;;;;5049695;28;45459;-73
2022/11/13 00:57:41;;;;;;;2.83;2.42;;;13.10;63.20;;;;;;5039451;28;45556;-73
2022/11/13 01:00:09;;;;;;;3.25;2.67;;;13.10;63.20;;;;;;5029223;28;45220;-73
2022/11/13 01:02:36;;;;;;;3.03;2.72;;;13.10;63.20;;;;;;5029403;28;45279;-72
2022/11/13 01:05:03;;;;;;;3.22;2.92;;;13.10;64.00;;;;;;5029313;28;45273;-73
2022/11/13 01:07:30;;;;;;;2.67;2.30;;;13.10;63.30;;;;;;5028461;28;45307;-73
2022/11/13 01:09:58;;;;;;;2.45;2.25;;;13.10;63.30;;;;;;5029182;28;45322;-72
2022/11/13 01:12:25;;;;;;;3.25;2.95;;;13.10;63.30;;;;;;5029487;28;45188;-73
2022/11/13 01:14:53;;;;;;;3.50;2.30;;;13.10;63.20;;;;;;5029584;28;45349;-72
2022/11/13 01:17:21;;;;;;;2.90;2.55;;;13.10;63.20;;;;;;5029189;28;45314;-72
2022/11/13 01:19:48;;;;;;;2.60;2.35;;;13.10;63.10;;;;;;5029245;28;45144;-73
2022/11/13 01:22:15;;;;;;;2.40;2.20;;;13.10;63.20;;;;;;5029247;28;45267;-73
2022/11/13 01:24:42;;;;;;;3.17;2.13;;;13.10;63.20;;;;;;5029523;28;45250;-72
2022/11/13 01:27:08;;;;;;;2.33;2.13;;;13.10;63.20;;;;;;5028643;28;46518;-72
2022/11/13 01:29:37;;;;;;;2.70;2.20;;;13.10;63.10;;;;;;5029109;28;45352;-73
2022/11/13 01:32:05;;;;;;;2.50;2.30;;;13.10;63.10;;;;;;5043183;28;45319;-72
2022/11/13 01:34:33;;;;;;;3.45;2.50;;;13.10;63.10;;;;;;5049236;28;45286;-73
2022/11/13 01:36:59;;;;;;;3.53;2.50;;;13.10;63.10;;;;;;5048685;28;45428;-73
2022/11/13 01:39:26;;;;;;;2.50;2.30;;;13.10;63.10;;;;;;5048286;28;45333;-72
2022/11/13 01:41:53;;;;;;;2.42;2.22;;;13.10;63.10;;;;;;5048008;28;45188;-73
2022/11/13 01:44:21;;;;;;;2.72;2.47;;;13.10;63.10;;;;;;5049042;28;45401;-72
2022/11/13 01:46:48;;;;;;;3.05;2.25;;;13.10;63.10;;;;;;5048513;28;45463;-72
2022/11/13 01:49:23;;;;;;;2.40;2.17;;;13.10;63.10;;;;;;5048757;28;45302;-72
2022/11/13 01:51:52;;;;;;;2.63;2.25;;;13.10;63.10;;;;;;5037275;28;45551;-73
2022/11/13 01:54:21;;;;;;;2.22;1.98;;;13.10;63.20;;;;;;5028219;28;45362;-72
2022/11/13 01:56:48;;;;;;;2.65;2.10;;;13.10;63.20;;;;;;5027642;28;45461;-72
2022/11/13 01:59:16;;;;;;;2.28;2.08;;;13.10;63.10;;;;;;5028347;28;45293;-72
2022/11/13 02:01:43;;;;;;;2.63;2.42;;;13.00;63.10;;;;;;5028433;28;45177;-72
2022/11/13 02:04:09;;;;;;;2.65;2.25;;;13.00;63.80;;;;;;5028819;28;45305;-72
2022/11/13 02:06:41;;;;;;;2.35;1.90;;;13.00;63.10;;;;;;5028171;28;46404;-72
2022/11/13 02:09:07;;;;;;;2.33;1.92;;;13.00;63.10;;;;;;5028175;28;45309;-72
2022/11/13 02:11:34;;;;;;;2.45;2.20;;;13.10;63.10;;;;;;5028512;28;45221;-72
2022/11/13 02:14:01;;;;;;;2.30;2.10;;;13.10;63.10;;;;;;5028447;28;45281;-72
2022/11/13 02:16:29;;;;;;;2.20;2.00;;;13.00;63.00;;;;;;5028032;28;47642;-72
2022/11/13 02:18:56;;;;;;;2.13;1.92;;;13.00;63.10;;;;;;5028169;28;45428;-73
2022/11/13 02:21:29;;;;;;;2.22;1.90;;;13.00;63.10;;;;;;5028473;28;45189;-72
2022/11/13 02:24:01;;;;;;;2.90;2.60;;;13.00;63.10;;;;;;5028367;28;45459;-72
2022/11/13 02:26:29;;;;;;;2.47;2.28;;;13.00;63.10;;;;;;5027936;28;46388;-72
2022/11/13 02:28:56;;;;;;;2.50;1.95;;;13.00;63.10;;;;;;5028085;28;45398;-72
2022/11/13 02:31:23;;;;;;;3.35;2.15;;;13.00;63.20;;;;;;5036426;28;45144;-72
2022/11/13 02:33:50;;;;;;;2.05;1.85;;;13.00;63.20;;;;;;5048117;28;45409;-72
2022/11/13 02:36:17;;;;;;;1.73;1.60;;;13.00;63.20;;;;;;5047775;28;45309;-72
2022/11/13 02:38:43;;;;;;;2.28;2.10;;;13.00;63.20;;;;;;5047426;28;45255;-72
2022/11/13 02:41:10;;;;;;;2.08;1.88;;;13.00;63.20;;;;;;5047717;28;45284;-72
2022/11/13 02:43:38;;;;;;;2.78;2.15;;;13.00;63.20;;;;;;5047121;28;45467;-72
2022/11/13 02:46:06;;;;;;;2.17;1.67;;;13.00;63.20;;;;;;5047565;28;46412;-72
2022/11/13 02:48:33;;;;;;;2.58;2.38;;;13.00;63.10;;;;;;5047639;28;45314;-72
2022/11/13 02:50:59;;;;;;;2.70;1.95;;;13.00;63.10;;;;;;5047805;28;45302;-72
2022/11/13 02:53:27;;;;;;;2.28;2.03;;;13.00;63.10;;;;;;5047703;28;45401;-72
2022/11/13 02:55:53;;;;;;;1.90;1.67;;;13.00;63.90;;;;;;5043150;28;46665;-72
2022/11/13 02:58:20;;;;;;;1.95;1.80;;;13.00;63.20;;;;;;5047565;28;45208;-72
2022/11/13 03:00:49;;;;;;;2.60;2.38;;;13.00;63.20;;;;;;5047607;28;45271;-72
2022/11/13 03:03:16;;;;;;;1.85;1.75;;;12.90;63.10;;;;;;5047955;28;45387;-72
2022/11/13 03:05:42;;;;;;;2.15;1.95;;;12.90;63.20;;;;;;5047659;28;47250;-73
2022/11/13 03:08:09;;;;;;;2.03;1.83;;;12.90;63.20;;;;;;5047487;28;45283;-73
2022/11/13 03:10:36;;;;;;;1.80;1.70;;;12.90;63.30;;;;;;5047538;28;45250;-72
2022/11/13 03:13:03;;;;;;;2.45;2.22;;;12.90;63.30;;;;;;5047808;28;45341;-72
2022/11/13 03:15:30;;;;;;;1.98;1.88;;;12.90;63.30;;;;;;5047223;28;46701;-72
2022/11/13 03:18:01;;;;;;;1.75;1.60;;;12.90;63.20;;;;;;5047267;28;45294;-72
2022/11/13 03:20:29;;;;;;;1.80;1.70;;;12.90;63.10;;;;;;5047303;28;45296;-72
2022/11/13 03:22:56;;;;;;;2.20;1.77;;;12.90;63.10;;;;;;5047572;28;45442;-72
2022/11/13 03:25:22;;;;;;;2.30;2.10;;;12.90;63.20;;;;;;5047189;28;46419;-72
2022/11/13 03:27:49;;;;;;;2.25;1.58;;;12.90;63.10;;;;;;5046435;28;45250;-72
2022/11/13 03:30:16;;;;;;;1.67;1.58;;;12.90;63.20;;;;;;5047231;28;45250;-72
2022/11/13 03:32:43;;;;;;;1.70;1.60;;;12.90;63.20;;;;;;5047249;28;45428;-72
2022/11/13 03:35:11;;;;;;;1.73;1.60;;;12.90;63.20;;;;;;5046999;28;46348;-72
2022/11/13 03:37:38;;;;;;;1.75;1.60;;;12.90;63.30;;;;;;5046996;28;45230;-72
2022/11/13 03:40:06;;;;;;;1.70;1.60;;;12.90;63.20;;;;;;5046967;28;45245;-72
2022/11/13 03:42:33;;;;;;;1.55;1.45;;;12.90;63.30;;;;;;5047162;28;45267;-72
2022/11/13 03:45:00;;;;;;;1.73;1.60;;;12.80;63.20;;;;;;5046861;28;46381;-72
2022/11/13 03:47:26;;;;;;;2.10;1.90;;;12.80;63.20;;;;;;5046700;28;45423;-72
2022/11/13 03:49:53;;;;;;;1.92;1.70;;;12.80;63.20;;;;;;5046903;28;45210;-72
2022/11/13 03:52:21;;;;;;;1.70;1.60;;;12.80;63.20;;;;;;5047157;28;45195;-72
2022/11/13 03:54:48;;;;;;;1.50;1.40;;;12.80;63.20;;;;;;5046664;28;45316;-72
2022/11/13 03:57:15;;;;;;;1.92;1.70;;;12.80;63.20;;;;;;5040872;28;45293;-72
2022/11/13 03:59:42;;;;;;;1.85;1.60;;;12.80;63.20;;;;;;5026810;28;45238;-72
2022/11/13 04:02:09;;;;;;;1.67;1.58;;;12.80;63.20;;;;;;5026907;28;45199;-72
2022/11/13 04:04:36;;;;;;;1.67;1.58;;;12.80;63.20;;;;;;5025960;28;46392;-72
2022/11/13 04:07:02;;;;;;;1.60;1.50;;;12.80;63.20;;;;;;5026688;28;45415;-72
2022/11/13 04:09:31;;;;;;;1.50;1.40;;;12.80;64.00;;;;;;5025921;28;45282;-72
2022/11/13 04:11:57;;;;;;;1.58;1.48;;;12.80;64.00;;;;;;5026267;28;45450;-72
2022/11/13 04:14:24;;;;;;;1.63;1.42;;;12.80;63.20;;;;;;5026599;28;47396;-72
2022/11/13 04:16:51;;;;;;;1.90;1.38;;;12.80;63.20;;;;;;5026687;28;45354;-72
2022/11/13 04:19:18;;;;;;;2.00;1.80;;;12.80;63.20;;;;;;5026480;28;45322;-72
2022/11/13 04:21:45;;;;;;;1.60;1.50;;;12.80;63.20;;;;;;5026574;28;45341;-72
2022/11/13 04:24:12;;;;;;;1.80;1.65;;;12.70;63.90;;;;;;5026015;28;46433;-72
2022/11/13 04:26:40;;;;;;;1.80;1.70;;;12.70;63.20;;;;;;5026220;28;45194;-72
2022/11/13 04:29:07;;;;;;;1.70;1.60;;;12.80;63.30;;;;;;5026314;28;45213;-72
2022/11/13 04:31:34;;;;;;;1.63;1.52;;;12.70;63.10;;;;;;5036343;28;45409;-72
2022/11/13 04:34:01;;;;;;;1.77;1.67;;;12.80;63.10;;;;;;5046197;28;47397;-72
2022/11/13 04:36:28;;;;;;;1.75;1.63;;;12.80;63.10;;;;;;5046195;28;45316;-72
2022/11/13 04:38:54;;;;;;;1.60;1.50;;;12.70;63.00;;;;;;5046062;28;45239;-72
2022/11/13 04:44:07;;;;;;;1.60;1.50;;;12.80;63.10;;;;;;5043517;28;45835;-72
2022/11/13 04:46:34;;;;;;;1.40;1.30;;;12.70;63.00;;;;;;5046037;28;45382;-72
2022/11/13 04:49:01;;;;;;;1.42;1.33;;;12.70;63.00;;;;;;5046250;28;45250;-72
2022/11/13 04:51:28;;;;;;;1.70;1.33;;;12.70;63.00;;;;;;5046403;28;45405;-72
2022/11/13 04:53:55;;;;;;;1.05;1.05;;;12.70;63.10;;;;;;5046042;28;45218;-72
2022/11/13 04:56:21;;;;;;;1.55;1.45;;;12.70;63.00;;;;;;5045877;28;45215;-71
2022/11/13 04:58:48;;;;;;;1.55;1.45;;;12.70;63.10;;;;;;5045072;28;45218;-72
2022/11/13 05:01:16;;;;;;;1.67;1.30;;;12.70;63.10;;;;;;5046057;28;45286;-72
2022/11/13 05:03:43;;;;;;;1.08;1.05;;;12.70;63.00;;;;;;5045853;28;46501;-72
2022/11/13 05:06:10;;;;;;;1.50;1.25;;;12.70;63.00;;;;;;5045724;28;45192;-72
2022/11/13 05:08:38;;;;;;;1.65;1.27;;;12.70;63.10;;;;;;5045912;28;45271;-72
2022/11/13 05:11:05;;;;;;;1.85;1.50;;;12.70;63.10;;;;;;5045909;28;45276;-72
2022/11/13 05:13:32;;;;;;;1.92;1.70;;;12.70;63.10;;;;;;5045527;28;45496;-72
2022/11/13 05:16:03;;;;;;;1.40;1.30;;;12.70;63.80;;;;;;5045847;28;45191;-72
2022/11/13 05:18:31;;;;;;;1.60;1.45;;;12.70;63.10;;;;;;5049400;28;45333;-72
2022/11/13 05:20:58;;;;;;;1.30;1.20;;;12.70;63.10;;;;;;5049629;28;45300;-72
2022/11/13 05:23:25;;;;;;;1.25;1.17;;;12.70;63.10;;;;;;5049074;28;46349;-72
2022/11/13 05:25:51;;;;;;;1.30;1.20;;;12.70;63.10;;;;;;5049197;28;45222;-72
2022/11/13 05:28:18;;;;;;;1.45;1.35;;;12.70;63.10;;;;;;5049376;28;45195;-72
2022/11/13 05:30:45;;;;;;;1.52;1.42;;;12.60;63.10;;;;;;5049236;28;45405;-72
2022/11/13 05:33:12;;;;;;;1.58;1.02;;;12.60;63.00;;;;;;5048721;28;46408;-72
2022/11/13 05:35:40;;;;;;;1.48;1.38;;;12.60;63.10;;;;;;5049123;28;45246;-73
2022/11/13 05:38:07;;;;;;;1.50;1.40;;;12.60;63.20;;;;;;5049020;28;45236;-73
2022/11/13 05:40:34;;;;;;;1.67;1.38;;;12.60;63.10;;;;;;5048408;28;45484;-71
2022/11/13 05:43:01;;;;;;;1.60;1.50;;;12.60;63.10;;;;;;5048352;28;46415;-73
2022/11/13 05:45:28;;;;;;;1.30;1.20;;;12.60;63.20;;;;;;5048927;28;45297;-73
2022/11/13 05:47:55;;;;;;;1.00;1.00;;;12.60;63.10;;;;;;5049163;28;45460;-73
2022/11/13 05:50:22;;;;;;;1.20;1.10;;;12.60;63.20;;;;;;5049136;28;45348;-73
2022/11/13 05:52:50;;;;;;;1.10;1.10;;;12.60;63.10;;;;;;5048418;28;45376;-73
2022/11/13 05:55:17;;;;;;;1.45;1.35;;;12.60;63.10;;;;;;5048589;28;45366;-73
2022/11/13 05:57:44;;;;;;;1.40;1.30;;;12.60;63.10;;;;;;5048569;28;45376;-73
2022/11/13 06:00:12;;;;;;;1.10;1.10;;;12.60;63.10;;;;;;5048687;28;45449;-73
2022/11/13 06:02:38;;;;;;;1.42;1.33;;;12.60;63.10;;;;;;5048385;28;46359;-73
2022/11/13 06:05:06;;;;;;;1.10;1.10;;;12.60;63.20;;;;;;5048305;28;45387;-73
2022/11/13 06:07:33;;;;;;;1.73;1.20;;;12.60;63.10;;;;;;5048653;28;45286;-73
2022/11/13 06:10:01;;;;;;;1.45;1.35;;;12.60;63.80;;;;;;5048769;28;45468;-73
2022/11/13 06:12:29;;;;;;;1.73;1.60;;;12.60;63.10;;;;;;5047910;28;46439;-73
2022/11/13 06:14:56;;;;;;;1.40;1.30;;;12.60;63.10;;;;;;5048269;28;45288;-72
2022/11/13 06:17:23;;;;;;;1.20;1.10;;;12.60;63.10;;;;;;5048146;28;45311;-73
2022/11/13 06:19:50;;;;;;;1.20;1.10;;;12.60;63.10;;;;;;5048235;28;45487;-73
2022/11/13 06:22:16;;;;;;;1.33;1.23;;;12.50;63.10;;;;;;5047834;28;45499;-73
2022/11/13 06:24:43;;;;;;;1.10;1.08;;;12.50;63.10;;;;;;5047582;28;45219;-72
2022/11/13 06:27:11;;;;;;;1.17;1.08;;;12.50;63.80;;;;;;5047244;28;45342;-72
2022/11/13 06:29:38;;;;;;;1.00;1.00;;;12.50;63.20;;;;;;5048240;28;45236;-72
2022/11/13 06:32:05;;;;;;;1.40;1.30;;;12.50;63.80;;;;;;5047897;28;45482;-73
2022/11/13 06:34:32;;;;;;;1.20;1.10;;;12.50;63.10;;;;;;5047886;28;45338;-72
2022/11/13 06:36:59;;;;;;;1.52;1.40;;;12.50;63.10;;;;;;5047963;28;45206;-72
2022/11/13 06:39:26;;;;;;;1.20;1.10;;;12.50;63.90;;;;;;5047622;28;45370;-72
2022/11/13 06:41:53;;;;;;;1.20;1.13;;;12.50;63.10;;;;;;5047508;28;46593;-72
2022/11/13 06:44:21;;;;;;;1.30;1.13;;;12.50;63.20;;;;;;5047798;28;45331;-73
2022/11/13 06:46:48;;;;;;;0.73;0.73;;;12.50;63.90;;;;;;5047621;28;45285;-73
2022/11/13 06:49:15;;;;;;;1.52;1.13;;;12.50;63.20;;;;;;5048326;28;45392;-73
2022/11/13 06:51:41;;;;;;;0.88;0.88;;;12.50;63.20;;;;;;5043358;28;46386;-72
2022/11/13 06:54:08;;;;;;;1.20;1.10;;;12.50;63.10;;;;;;5029555;28;45480;-72
2022/11/13 06:56:35;;;;;;;1.05;1.00;;;12.50;63.10;;;;;;5027496;28;45182;-72
2022/11/13 06:59:02;;;;;;;1.38;1.10;;;12.50;63.20;;;;;;5037348;28;45475;-73
2022/11/13 07:01:30;;;;;;;1.23;1.15;;;12.50;63.20;;;;;;5039293;28;47482;-73
2022/11/13 07:03:57;;;;;;;1.02;1.02;;;12.50;63.10;;;;;;5027373;28;45316;-73
2022/11/13 07:06:24;;;;;;;1.40;1.30;;;12.50;63.20;;;;;;5027623;28;45316;-73
2022/11/13 07:08:51;;;;;;;1.45;1.35;;;12.50;63.10;;;;;;5027121;28;45370;-72
2022/11/13 07:11:19;;;;;;;1.10;1.05;;;12.50;63.20;;;;;;5026957;28;45718;-72
2022/11/13 07:13:46;;;;;;;1.05;1.05;;;12.50;63.20;;;;;;5027089;28;45379;-72
2022/11/13 07:16:14;;;;;;;1.20;1.20;;;12.50;63.20;;;;;;5027429;28;45329;-72
2022/11/13 07:18:42;;;;;;;1.20;1.13;;;12.50;63.20;;;;;;5027443;28;45325;-73
2022/11/13 07:21:10;;;;;;;1.08;1.05;;;12.40;63.10;;;;;;5026784;28;45251;-72
2022/11/13 07:23:41;;;;;;;1.75;1.42;;;12.40;63.10;;;;;;5027053;28;45353;-72
2022/11/13 07:26:08;;;;;;;1.17;1.07;;;12.40;63.10;;;;;;5027135;28;45294;-73
2022/11/13 07:28:35;;;;;;;1.00;1.00;;;12.40;63.10;;;;;;5027421;28;45322;-72
2022/11/13 07:31:02;;;;;;;1.35;1.17;;;12.40;63.10;;;;;;5032449;28;45360;-72
2022/11/13 07:33:29;;;;;;;1.27;1.13;;;12.40;63.10;;;;;;5046964;28;45372;-72
2022/11/13 07:35:57;;;;;;;1.20;1.10;;;12.40;64.00;;;;;;5046952;28;45151;-72
2022/11/13 07:38:24;;;;;;;1.10;1.00;;;12.40;63.30;;;;;;5046778;28;45336;-72
2022/11/13 07:40:51;;;;;;;1.20;1.10;;;12.40;63.30;;;;;;5046254;28;46390;-72
2022/11/13 07:43:18;;;;;;;1.35;1.25;;;12.40;63.20;;;;;;5046961;28;45333;-73
2022/11/13 07:45:45;;;;;;;1.27;1.17;;;12.40;63.10;;;;;;5046985;28;45365;-73
2022/11/13 07:48:11;;;;;;;1.10;1.05;;;12.40;63.10;;;;;;5046996;28;45647;-72
2022/11/13 07:50:39;;;;;;;1.17;1.10;;;12.40;63.20;;;;;;5046588;28;45274;-72
2022/11/13 07:53:07;;;;;;;1.65;1.10;;;12.40;63.30;;;;;;5046421;28;45257;-73
2022/11/13 07:55:35;;;;;;;1.30;1.20;;;12.40;63.20;;;;;;5046009;28;45246;-72
2022/11/13 07:58:01;;;;;;;1.20;1.10;;;12.40;63.10;;;;;;5047039;28;45279;-72
2022/11/13 08:00:29;;;;;;;1.48;1.27;;;12.50;63.10;;;;;;5046573;28;45271;-72
2022/11/13 08:02:56;;;;;;;1.00;1.00;;;12.50;63.00;;;;;;5046527;28;45268;-72
2022/11/13 08:05:23;;;;;;;1.30;1.20;;;12.50;63.00;;;;;;5046823;28;45310;-72
2022/11/13 08:07:50;;;;;;;1.05;0.98;;;12.50;63.00;;;;;;5046786;28;45268;-72
2022/11/13 08:10:19;;;;;;;1.10;1.10;;;12.50;63.00;;;;;;5046667;28;47309;-72
2022/11/13 08:12:46;;;;;;;1.20;1.10;;;12.50;63.00;;;;;;5046532;28;45736;-72
2022/11/13 08:15:13;;;;;;;1.10;1.00;;;12.50;63.10;;;;;;5046389;28;45303;-72
2022/11/13 08:17:40;;;;;;;1.20;1.10;;;12.50;63.00;;;;;;5046753;28;45442;-72
2022/11/13 08:20:07;;;;;;;1.08;1.08;;;12.40;63.10;;;;;;5046317;28;48125;-72
2022/11/13 08:22:35;;;;;;;1.33;1.23;;;12.40;63.10;;;;;;5046418;28;45260;-73
2022/11/13 08:25:02;;;;;;;1.00;1.00;;;12.40;63.10;;;;;;5046466;28;45335;-72
2022/11/13 08:27:30;;;;;;;1.20;1.10;;;12.40;63.20;;;;;;5046573;28;45305;-72
2022/11/13 08:29:57;;;;;;;1.00;1.00;;;12.40;63.30;;;;;;5046306;28;45304;-72
2022/11/13 08:32:24;;;;;;;0.98;0.98;;;12.40;64.00;;;;;;5046164;28;45206;-72
2022/11/13 08:34:51;;;;;;;1.20;1.17;;;12.40;63.20;;;;;;5046210;28;45203;-72
2022/11/13 08:37:17;;;;;;;1.50;0.90;;;12.40;63.20;;;;;;5046323;28;45285;-72
2022/11/13 08:39:44;;;;;;;1.10;1.10;;;12.40;63.20;;;;;;5045139;28;46417;-72
2022/11/13 08:42:11;;;;;;;1.08;1.00;;;12.40;63.20;;;;;;5046222;28;45251;-72
2022/11/13 08:44:40;;;;;;;1.27;1.17;;;12.40;63.30;;;;;;5046218;28;45249;-72
2022/11/13 08:47:07;;;;;;;1.35;1.25;;;12.40;63.30;;;;;;5046221;28;45414;-72
2022/11/13 08:49:33;;;;;;;1.15;1.08;;;12.40;63.30;;;;;;5045975;28;46682;-72
2022/11/13 08:52:00;;;;;;;0.90;0.90;;;12.40;63.30;;;;;;5048987;28;45436;-72
2022/11/13 08:54:27;;;;;;;1.20;1.10;;;12.40;63.30;;;;;;5049678;28;45239;-72
2022/11/13 08:56:54;;;;;;;1.10;1.10;;;12.40;63.30;;;;;;5049745;28;45239;-72
2022/11/13 08:59:22;;;;;;;1.30;1.20;;;12.40;63.30;;;;;;5049449;28;45318;-72
2022/11/13 09:01:57;;;;;;;1.40;1.30;;;12.40;63.30;;;;;;5049126;28;45351;-72
2022/11/13 09:04:23;;;;;;;1.27;1.23;;;12.40;63.30;;;;;;5049541;28;45324;-72
2022/11/13 09:06:53;;;;;;;1.20;1.10;;;12.40;63.30;;;;;;5049634;28;45400;-72
2022/11/13 09:09:21;;;;;;;1.52;1.42;;;12.40;63.30;;;;;;5049336;28;46736;-72
2022/11/13 09:11:48;;;;;;;1.03;0.93;;;12.40;63.30;;;;;;5049309;28;45320;-72
2022/11/13 09:14:15;;;;;;;1.30;1.20;;;12.40;63.30;;;;;;5049519;28;45282;-72
2022/11/13 09:16:42;;;;;;;1.30;1.20;;;12.40;63.30;;;;;;5049709;28;45448;-72
2022/11/13 09:19:10;;;;;;;1.30;1.20;;;12.40;64.00;;;;;;5048488;28;45317;-72
2022/11/13 09:21:37;;;;;;;1.75;1.38;;;12.40;63.20;;;;;;5049008;28;45294;-72
2022/11/13 09:24:05;;;;;;;1.10;1.10;;;12.40;63.20;;;;;;5048835;28;45241;-72
2022/11/13 09:26:32;;;;;;;1.20;1.20;;;12.40;63.30;;;;;;5048594;28;45217;-72
2022/11/13 09:28:58;;;;;;;1.42;1.17;;;12.40;63.20;;;;;;5048966;28;45245;-72
2022/11/13 09:31:25;;;;;;;1.30;1.17;;;12.40;63.30;;;;;;5048643;28;45182;-72
2022/11/13 09:33:52;;;;;;;1.17;1.10;;;12.40;63.30;;;;;;5049045;28;45217;-72
2022/11/13 09:36:21;;;;;;;1.30;1.20;;;12.40;63.40;;;;;;5049026;28;44740;-72
2022/11/13 09:38:47;;;;;;;1.33;1.13;;;12.40;63.30;;;;;;5048493;28;46622;-72
2022/11/13 09:41:17;;;;;;;1.42;1.30;;;12.40;63.30;;;;;;5048591;28;45274;-73
2022/11/13 09:43:45;;;;;;;2.47;1.30;;;12.40;63.40;;;;;;5035662;28;45478;-72
2022/11/13 09:46:17;;;;;;;1.30;1.20;;;12.40;63.40;;;;;;5039232;28;45634;-73
2022/11/13 09:48:47;;;;;;;1.25;1.15;;;12.40;63.40;;;;;;5039257;28;46377;-73
2022/11/13 09:51:15;;;;;;;1.42;1.33;;;12.40;63.50;;;;;;5028043;28;45190;-72
2022/11/13 09:53:43;;;;;;;3.10;1.40;;;12.40;64.10;;;;;;5026954;28;45382;-73
2022/11/13 09:56:23;;;;;;;1.40;1.20;;;12.40;63.40;;;;;;5032636;28;45420;-72
2022/11/13 09:58:54;;;;;;;1.30;1.20;;;12.40;63.50;;;;;;5027828;28;47049;-73
2022/11/13 10:01:26;;;;;;;1.20;1.10;;;12.40;63.50;;;;;;5028408;28;45516;-73
2022/11/13 10:03:56;;;;;;;2.45;1.33;;;12.40;63.60;;;;;;5044079;28;45762;-73
2022/11/13 10:06:24;;;;;;;3.45;1.35;;;12.40;63.60;;;;;;5044540;28;45183;-72
2022/11/13 10:08:55;;;;;;;1.37;1.27;;;12.40;63.60;;;;;;5048314;28;46416;-72
2022/11/13 10:11:26;;;;;;;1.45;1.23;;;12.40;63.60;;;;;;5043534;28;45322;-72
2022/11/13 10:13:54;;;;;;;1.33;1.23;;;12.40;63.70;;;;;;5046054;28;45290;-72
2022/11/13 10:16:27;;;;;;;1.40;1.30;;;12.40;63.70;;;;;;5039374;28;45427;-73
2022/11/13 10:18:54;;;;;;;4.03;1.20;;;12.40;63.70;;;;;;5034306;28;45453;-73
2022/11/13 10:21:30;;;;;;;1.35;1.25;;;12.40;63.60;;;;;;5029639;28;45467;-73
2022/11/13 10:24:11;;;;;;;1.40;1.30;;;12.40;63.60;;;;;;5039816;28;45372;-73
2022/11/13 10:26:39;;;;;;;1.63;1.30;;;12.40;63.60;;;;;;5039038;28;46969;-73
2022/11/13 10:29:10;;;;;;;1.30;1.20;;;12.40;63.70;;;;;;5047990;28;45326;-72
2022/11/13 10:31:45;;;;;;;1.30;1.20;;;12.50;63.70;;;;;;5036179;28;45461;-73
2022/11/13 10:34:12;;;;;;;2.15;1.75;;;12.40;63.80;;;;;;5044949;28;45287;-72
2022/11/13 10:36:42;;;;;;;1.27;1.17;;;12.50;64.00;;;;;;5033128;28;45283;-73
2022/11/13 10:39:10;;;;;;;1.55;1.40;;;12.50;64.30;;;;;;5027243;28;45496;-74
2022/11/13 10:41:46;;;;;;;2.00;1.25;;;12.50;64.20;;;;;;5026226;28;45457;-73
2022/11/13 10:44:21;;;;;;;1.65;1.00;;;12.50;64.40;;;;;;5026876;28;45187;-73
2022/11/13 10:46:48;;;;;;;1.57;1.47;;;12.50;64.30;;;;;;5038890;28;45568;-73
2022/11/13 10:49:18;;;;;;;2.30;1.40;;;12.50;64.40;;;;;;5028078;28;45469;-73
2022/11/13 10:51:45;;;;;;;2.65;1.55;;;12.50;64.40;;;;;;5027394;28;45201;-73
2022/11/13 10:54:24;;;;;;;2.00;1.50;;;12.50;64.40;;;;;;5026145;28;45465;-73
2022/11/13 10:56:58;;;;;;;4.27;1.20;;;12.50;64.30;;;;;;5024856;28;45642;-73
2022/11/13 10:59:26;;;;;;;2.88;1.58;;;12.50;64.20;;;;;;5030346;28;45557;-73
2022/11/13 11:01:53;;;;;;;1.40;1.30;;;12.50;64.10;;;;;;5042482;28;45418;-73
2022/11/13 11:04:26;;;;;;;1.42;1.30;;;12.50;64.10;;;;;;5039786;28;45384;-73
2022/11/13 11:07:04;;;;;;;1.23;1.13;;;12.50;64.10;;;;;;5032257;28;45667;-72
2022/11/13 11:09:32;;;;;;;1.30;1.20;;;12.50;64.90;;;;;;5038732;28;46415;-72
2022/11/13 11:12:18;;;;;;;1.58;1.48;;;12.50;64.20;;;;;;5034018;28;45696;-73
2022/11/13 11:15:03;;;;;;;1.38;1.27;;;12.50;64.10;;;;;;5025628;28;45239;-73
2022/11/13 11:17:34;;;;;;;1.83;1.40;;;12.50;64.10;;;;;;5028845;28;45421;-74
2022/11/13 11:20:04;;;;;;;1.20;1.20;;;12.50;64.00;;;;;;5034928;28;46491;-74
2022/11/13 11:22:33;;;;;;;1.45;1.35;;;12.50;64.00;;;;;;5042097;28;45497;-74
2022/11/13 11:25:06;;;;;;;1.60;1.50;;;12.50;64.20;;;;;;5031923;28;45470;-74
2022/11/13 11:27:35;;;;;;;2.97;1.35;;;12.50;64.10;;;;;;5037576;28;45398;-73
2022/11/13 11:30:05;;;;;;;5.63;1.52;;;12.50;64.20;;;;;;5033062;28;45211;-73
2022/11/13 11:32:34;;;;;;;1.60;1.50;;;12.60;64.40;;;;;;5040642;28;45325;-74
2022/11/13 11:35:06;;;;;;;7.00;1.67;;;12.60;64.40;;;;;;5041555;28;45252;-74
2022/11/13 11:37:35;;;;;;;1.45;1.35;;;12.60;64.60;;;;;;5030566;28;45309;-74
2022/11/13 11:40:06;;;;;;;1.58;1.48;;;12.50;64.40;;;;;;5039961;28;49066;-74
2022/11/13 11:42:37;;;;;;;4.40;1.40;;;12.60;64.60;;;;;;5033061;28;45532;-74
2022/11/13 11:45:14;;;;;;;2.90;1.48;;;12.60;64.60;;;;;;5031737;28;45476;-73
2022/11/13 11:47:42;;;;;;;2.63;1.60;;;12.60;64.70;;;;;;5029170;28;45521;-74
2022/11/13 11:50:12;;;;;;;3.03;1.53;;;12.60;64.90;;;;;;5033313;28;45485;-74
2022/11/13 11:52:49;;;;;;;1.83;1.43;;;12.60;64.70;;;;;;5034688;28;45432;-75
2022/11/13 11:55:53;;;;;;;1.33;1.13;;;12.60;64.70;;;;;;5041142;28;45310;-73
2022/11/13 11:58:28;;;;;;;1.53;1.43;;;12.60;65.00;;;;;;5018432;28;45624;-75
2022/11/13 12:01:00;;;;;;;1.40;1.30;;;12.60;65.00;;;;;;5031975;28;46317;-74
2022/11/13 12:03:38;;;;;;;1.50;1.40;;;12.60;65.00;;;;;;5039847;28;45189;-74
2022/11/13 12:06:08;;;;;;;2.13;1.77;;;12.60;65.00;;;;;;5036452;28;45313;-75
2022/11/13 12:08:39;;;;;;;1.60;1.50;;;12.60;64.90;;;;;;5026215;28;45264;-74
2022/11/13 12:11:14;;;;;;;5.45;1.27;;;12.60;65.50;;;;;;5042590;28;45786;-72
2022/11/13 12:13:43;;;;;;;4.20;1.60;;;12.70;66.00;;;;;;5033614;28;45331;-72
2022/11/13 12:16:13;;;;;;;3.85;1.77;;;12.70;66.40;;;;;;5031609;28;45242;-71
2022/11/13 12:18:45;;;;;;;6.28;3.25;;;12.80;65.80;;;;;;5039462;28;45381;-74
2022/11/13 12:21:21;;;;;;;5.68;3.08;;;12.80;66.00;;;;;;5030944;28;46508;-75
2022/11/13 12:24:03;;;;;;;5.30;4.63;;;12.90;66.00;;;;;;5036892;28;45282;-76
2022/11/13 12:26:34;;;;;;;13.13;7.30;;;13.00;65.90;;;;;;5046410;28;45630;-74
2022/11/13 12:29:05;;;;;;;10.70;9.23;;;13.10;66.00;;;;;;5055275;28;45448;-76
2022/11/13 12:31:47;;;;;;;18.58;16.58;;;13.20;65.70;;;;;;5053547;28;46699;-75
2022/11/13 12:34:18;;;;;;;22.73;19.55;;;13.20;65.50;;;;;;5062384;28;45377;-75
2022/11/13 12:36:45;;;;;;;22.63;18.17;;;13.30;65.40;;;;;;5046912;28;45514;-74
2022/11/13 12:39:34;;;;;;;19.95;16.65;;;13.30;65.40;;;;;;5066565;28;45366;-76
2022/11/13 12:42:05;;;;;;;17.92;15.02;;;13.40;65.20;;;;;;5054532;28;48403;-71
2022/11/13 12:44:33;;;;;;;17.38;14.38;;;13.40;64.70;;;;;;5036943;28;45496;-74
2022/11/13 12:47:01;;;;;;;16.08;12.93;;;13.50;64.50;;;;;;5060844;28;45220;-72
2022/11/13 12:49:30;;;;;;;14.02;12.57;;;13.60;64.60;;;;;;5060857;28;45411;-75
2022/11/13 12:51:58;;;;;;;14.55;12.40;;;13.60;64.40;;;;;;5038419;28;46535;-72
2022/11/13 12:54:29;;;;;;;15.75;11.73;;;13.70;64.60;;;;;;5040264;28;45262;-73